createdAt,value
2018-07-25T00:00:12.577Z,11.30
2018-07-25T00:01:18.330Z,11.20
2018-07-25T00:02:23.848Z,11.33
2018-07-25T00:03:29.298Z,12.50
2018-07-25T00:04:34.716Z,13.30
2018-07-25T00:05:40.141Z,13.30
2018-07-25T00:06:45.604Z,11.60
2018-07-25T00:07:51.144Z,16.37
2018-07-25T00:08:56.683Z,13.00
2018-07-25T00:10:02.146Z,15.30
2018-07-25T00:11:07.625Z,16.67
2018-07-25T00:12:13.126Z,14.67
2018-07-25T00:13:18.873Z,17.70
2018-07-25T00:14:24.435Z,15.50
2018-07-25T00:15:29.884Z,13.27
2018-07-25T00:16:35.801Z,13.50
2018-07-25T00:17:41.275Z,13.60
2018-07-25T00:18:47.147Z,15.80
2018-07-25T00:19:52.881Z,12.60
2018-07-25T00:20:58.578Z,13.03
2018-07-25T00:22:03.993Z,16.90
2018-07-25T00:23:09.560Z,14.77
2018-07-25T00:24:15.019Z,19.30
2018-07-25T00:25:20.466Z,15.80
2018-07-25T00:26:25.956Z,17.50
2018-07-25T00:27:31.419Z,16.03
2018-07-25T00:28:36.853Z,16.87
2018-07-25T00:29:42.296Z,20.80
2018-07-25T00:30:47.812Z,16.57
2018-07-25T00:31:53.347Z,16.23
2018-07-25T00:32:58.790Z,14.97
2018-07-25T00:34:04.203Z,16.13
2018-07-25T00:35:09.665Z,17.97
2018-07-25T00:36:15.107Z,17.67
2018-07-25T00:37:20.531Z,16.73
2018-07-25T00:38:26.057Z,21.50
2018-07-25T00:39:31.600Z,15.70
2018-07-25T00:40:37.006Z,14.93
2018-07-25T00:41:42.481Z,15.40
2018-07-25T00:42:47.925Z,15.90
2018-07-25T00:43:53.406Z,14.30
2018-07-25T00:44:58.849Z,15.83
2018-07-25T00:46:04.372Z,20.63
2018-07-25T00:47:09.816Z,16.40
2018-07-25T00:48:15.241Z,21.20
2018-07-25T00:49:20.722Z,16.80
2018-07-25T00:50:26.421Z,16.17
2018-07-25T00:51:32.021Z,14.77
2018-07-25T00:52:37.452Z,15.47
2018-07-25T00:53:42.921Z,17.13
2018-07-25T00:54:48.450Z,13.60
2018-07-25T00:55:53.930Z,15.87
2018-07-25T00:56:59.358Z,20.83
2018-07-25T00:58:04.840Z,17.00
2018-07-25T00:59:10.621Z,15.57
2018-07-25T01:00:17.111Z,16.20
2018-07-25T01:01:22.607Z,20.73
2018-07-25T01:02:28.090Z,16.40
2018-07-25T01:03:33.569Z,14.77
2018-07-25T01:04:39.054Z,17.40
2018-07-25T01:05:44.544Z,14.57
2018-07-25T01:06:50.351Z,20.40
2018-07-25T01:07:55.809Z,14.60
2018-07-25T01:09:01.231Z,20.17
2018-07-25T01:10:06.913Z,19.20
2018-07-25T01:11:12.356Z,19.33
2018-07-25T01:12:17.881Z,17.40
2018-07-25T01:13:23.596Z,17.17
2018-07-25T01:14:29.030Z,17.97
2018-07-25T01:15:34.481Z,17.67
2018-07-25T01:16:39.893Z,19.33
2018-07-25T01:17:45.413Z,17.50
2018-07-25T01:18:50.891Z,19.17
2018-07-25T01:19:56.382Z,18.47
2018-07-25T01:21:01.829Z,19.33
2018-07-25T01:22:07.216Z,18.63
2018-07-25T01:23:12.720Z,17.97
2018-07-25T01:24:18.209Z,18.47
2018-07-25T01:25:23.903Z,18.43
2018-07-25T01:26:29.380Z,18.80
2018-07-25T01:27:34.853Z,21.13
2018-07-25T01:28:40.312Z,23.07
2018-07-25T01:29:45.836Z,16.63
2018-07-25T01:30:51.409Z,16.00
2018-07-25T01:31:56.858Z,17.73
2018-07-25T01:33:02.296Z,18.57
2018-07-25T01:34:07.728Z,15.90
2018-07-25T01:35:13.577Z,20.90
2018-07-25T01:36:19.062Z,21.43
2018-07-25T01:37:24.739Z,17.33
2018-07-25T01:38:30.186Z,20.00
2018-07-25T01:39:35.621Z,17.30
2018-07-25T01:40:41.087Z,18.07
2018-07-25T01:41:46.540Z,20.60
2018-07-25T01:42:52.021Z,20.10
2018-07-25T01:43:57.518Z,19.30
2018-07-25T01:45:02.932Z,20.43
2018-07-25T01:46:08.376Z,19.30
2018-07-25T01:47:13.883Z,19.40
2018-07-25T01:48:19.329Z,22.63
2018-07-25T01:49:25.065Z,17.63
2018-07-25T01:50:30.489Z,18.73
2018-07-25T01:51:35.929Z,21.90
2018-07-25T01:52:41.448Z,18.10
2018-07-25T01:53:46.893Z,16.70
2018-07-25T01:54:52.390Z,20.03
2018-07-25T01:55:57.829Z,21.07
2018-07-25T01:57:03.241Z,18.30
2018-07-25T01:58:08.772Z,17.93
2018-07-25T01:59:14.253Z,19.37
2018-07-25T02:00:19.775Z,17.40
2018-07-25T02:01:25.359Z,18.30
2018-07-25T02:02:30.760Z,18.87
2018-07-25T02:03:36.180Z,21.60
2018-07-25T02:04:41.556Z,19.80
2018-07-25T02:05:47.036Z,18.47
2018-07-25T02:06:52.528Z,23.60
2018-07-25T02:07:58.097Z,22.37
2018-07-25T02:09:03.850Z,20.17
2018-07-25T02:10:09.388Z,18.20
2018-07-25T02:11:14.804Z,20.20
2018-07-25T02:12:20.292Z,20.60
2018-07-25T02:13:26.105Z,17.40
2018-07-25T02:14:31.519Z,17.70
2018-07-25T02:15:37.003Z,18.10
2018-07-25T02:16:42.425Z,20.70
2018-07-25T02:17:47.874Z,17.87
2018-07-25T02:18:53.360Z,17.20
2018-07-25T02:19:58.815Z,16.70
2018-07-25T02:21:04.260Z,18.30
2018-07-25T02:22:09.665Z,17.50
2018-07-25T02:23:15.103Z,19.00
2018-07-25T02:24:20.570Z,18.53
2018-07-25T02:25:26.034Z,23.67
2018-07-25T02:26:31.473Z,18.33
2018-07-25T02:27:36.973Z,21.33
2018-07-25T02:28:42.388Z,19.97
2018-07-25T02:29:47.481Z,16.57
2018-07-25T02:30:52.959Z,20.47
2018-07-25T02:31:58.384Z,17.23
2018-07-25T02:33:03.855Z,22.70
2018-07-25T02:34:14.553Z,19.23
2018-07-25T02:35:20.025Z,22.30
2018-07-25T02:36:25.505Z,21.87
2018-07-25T02:37:30.976Z,22.23
2018-07-25T02:38:36.422Z,20.13
2018-07-25T02:39:41.862Z,23.97
2018-07-25T02:40:47.709Z,21.87
2018-07-25T02:41:53.182Z,22.00
2018-07-25T02:42:58.602Z,25.93
2018-07-25T02:44:03.997Z,23.93
2018-07-25T02:45:09.474Z,21.50
2018-07-25T02:46:15.237Z,20.53
2018-07-25T02:47:20.701Z,21.83
2018-07-25T02:48:26.185Z,20.53
2018-07-25T02:49:31.606Z,20.07
2018-07-25T02:50:37.073Z,20.87
2018-07-25T02:51:42.661Z,21.43
2018-07-25T02:52:48.485Z,23.27
2018-07-25T02:53:53.949Z,20.10
2018-07-25T02:54:59.405Z,24.10
2018-07-25T02:56:05.265Z,19.00
2018-07-25T02:57:11.053Z,22.27
2018-07-25T02:58:16.553Z,18.47
2018-07-25T02:59:22.770Z,21.50
2018-07-25T03:00:28.229Z,21.70
2018-07-25T03:01:34.189Z,22.77
2018-07-25T03:02:39.658Z,20.80
2018-07-25T03:03:45.069Z,19.13
2018-07-25T03:04:50.915Z,28.37
2018-07-25T03:05:56.357Z,19.50
2018-07-25T03:07:01.436Z,20.53
2018-07-25T03:08:07.153Z,22.90
2018-07-25T03:09:12.739Z,20.90
2018-07-25T03:10:18.380Z,25.50
2018-07-25T03:11:23.869Z,22.30
2018-07-25T03:12:29.296Z,22.37
2018-07-25T03:13:34.728Z,19.57
2018-07-25T03:14:40.127Z,22.00
2018-07-25T03:15:45.609Z,24.40
2018-07-25T03:16:51.066Z,20.90
2018-07-25T03:17:56.559Z,25.23
2018-07-25T03:19:02.003Z,23.90
2018-07-25T03:20:07.457Z,23.20
2018-07-25T03:21:12.922Z,21.50
2018-07-25T03:22:18.453Z,20.93
2018-07-25T03:23:24.136Z,21.87
2018-07-25T03:24:29.590Z,25.17
2018-07-25T03:25:35.013Z,22.50
2018-07-25T03:26:40.465Z,20.63
2018-07-25T03:27:45.876Z,23.50
2018-07-25T03:28:51.896Z,22.60
2018-07-25T03:29:57.721Z,24.60
2018-07-25T03:31:03.204Z,22.20
2018-07-25T03:32:08.708Z,17.80
2018-07-25T03:33:14.118Z,20.53
2018-07-25T03:34:19.617Z,25.17
2018-07-25T03:35:25.105Z,19.03
2018-07-25T03:36:30.557Z,19.90
2018-07-25T03:37:36.141Z,23.13
2018-07-25T03:38:41.638Z,20.60
2018-07-25T03:39:47.045Z,22.00
2018-07-25T03:40:52.557Z,24.10
2018-07-25T03:41:57.981Z,20.83
2018-07-25T03:43:03.813Z,20.23
2018-07-25T03:44:09.270Z,22.70
2018-07-25T03:45:14.766Z,20.03
2018-07-25T03:46:20.340Z,19.90
2018-07-25T03:47:25.837Z,20.37
2018-07-25T03:48:31.285Z,20.80
2018-07-25T03:49:36.792Z,21.80
2018-07-25T03:50:42.268Z,20.70
2018-07-25T03:51:47.776Z,23.67
2018-07-25T03:52:53.255Z,18.80
2018-07-25T03:53:58.675Z,17.93
2018-07-25T03:55:04.158Z,19.33
2018-07-25T03:56:09.617Z,20.40
2018-07-25T03:57:15.141Z,18.37
2018-07-25T03:58:20.802Z,18.40
2018-07-25T03:59:26.290Z,17.70
2018-07-25T04:00:31.734Z,18.07
2018-07-25T04:01:37.193Z,17.87
2018-07-25T04:02:42.779Z,16.60
2018-07-25T04:03:48.182Z,17.10
2018-07-25T04:04:53.696Z,19.83
2018-07-25T04:05:59.124Z,16.50
2018-07-25T04:07:04.571Z,21.00
2018-07-25T04:08:10.066Z,18.67
2018-07-25T04:09:15.520Z,15.20
2018-07-25T04:10:20.985Z,15.30
2018-07-25T04:11:26.445Z,16.07
2018-07-25T04:12:31.905Z,17.20
2018-07-25T04:13:37.325Z,15.90
2018-07-25T04:14:42.801Z,16.10
2018-07-25T04:15:49.468Z,23.63
2018-07-25T04:16:54.969Z,14.93
2018-07-25T04:18:00.445Z,18.20
2018-07-25T04:19:06.045Z,18.60
2018-07-25T04:20:12.208Z,13.70
2018-07-25T04:21:17.650Z,17.43
2018-07-25T04:22:23.360Z,16.73
2018-07-25T04:23:28.908Z,14.83
2018-07-25T04:24:34.385Z,16.17
2018-07-25T04:25:39.811Z,18.20
2018-07-25T04:26:45.249Z,14.37
2018-07-25T04:27:50.709Z,13.60
2018-07-25T04:28:56.146Z,14.10
2018-07-25T04:30:01.570Z,15.80
2018-07-25T04:31:07.364Z,15.10
2018-07-25T04:32:12.912Z,16.60
2018-07-25T04:33:18.980Z,11.43
2018-07-25T04:34:24.620Z,16.57
2018-07-25T04:35:30.062Z,13.57
2018-07-25T04:36:35.472Z,13.10
2018-07-25T04:37:41.369Z,15.67
2018-07-25T04:38:46.795Z,14.30
2018-07-25T04:39:52.644Z,13.10
2018-07-25T04:40:58.149Z,13.93
2018-07-25T04:42:03.609Z,14.23
2018-07-25T04:43:09.109Z,14.33
2018-07-25T04:44:15.050Z,13.10
2018-07-25T04:45:20.545Z,12.57
2018-07-25T04:46:26.124Z,15.90
2018-07-25T04:47:31.501Z,12.43
2018-07-25T04:48:36.924Z,17.50
2018-07-25T04:49:42.385Z,15.23
2018-07-25T04:50:47.800Z,21.30
2018-07-25T04:51:53.265Z,15.57
2018-07-25T04:52:58.761Z,12.50
2018-07-25T04:54:03.900Z,14.53
2018-07-25T04:55:09.228Z,13.00
2018-07-25T04:56:14.755Z,16.00
2018-07-25T04:57:20.135Z,11.90
2018-07-25T04:58:26.218Z,15.83
2018-07-25T04:59:31.766Z,13.53
2018-07-25T05:00:37.168Z,12.80
2018-07-25T05:01:42.584Z,16.23
2018-07-25T05:02:48.164Z,17.77
2018-07-25T05:03:53.929Z,12.13
2018-07-25T05:04:59.449Z,14.47
2018-07-25T05:06:04.912Z,12.10
2018-07-25T05:07:10.427Z,16.30
2018-07-25T05:08:15.784Z,13.77
2018-07-25T05:09:21.282Z,17.30
2018-07-25T05:10:26.786Z,15.10
2018-07-25T05:11:32.228Z,13.63
2018-07-25T05:12:37.733Z,12.83
2018-07-25T05:13:42.808Z,15.87
2018-07-25T05:14:47.841Z,17.63
2018-07-25T05:15:53.218Z,17.00
2018-07-25T05:16:58.741Z,14.57
2018-07-25T05:18:04.265Z,22.50
2018-07-25T05:19:09.752Z,20.23
2018-07-25T05:20:15.230Z,16.83
2018-07-25T05:21:20.785Z,15.90
2018-07-25T05:22:26.246Z,24.50
2018-07-25T05:23:31.696Z,20.10
2018-07-25T05:24:37.581Z,15.70
2018-07-25T05:25:43.037Z,20.70
2018-07-25T05:26:48.526Z,22.97
2018-07-25T05:27:54.035Z,24.40
2018-07-25T05:28:59.455Z,19.57
2018-07-25T05:30:05.340Z,15.30
2018-07-25T05:31:10.768Z,21.63
2018-07-25T05:32:16.186Z,16.70
2018-07-25T05:33:21.654Z,14.40
2018-07-25T05:34:27.097Z,16.60
2018-07-25T05:35:32.868Z,23.00
2018-07-25T05:36:38.337Z,17.40
2018-07-25T05:37:43.766Z,15.10
2018-07-25T05:38:49.317Z,16.90
2018-07-25T05:39:54.859Z,24.10
2018-07-25T05:41:00.296Z,15.23
2018-07-25T05:42:05.729Z,20.13
2018-07-25T05:43:11.145Z,21.87
2018-07-25T05:44:16.564Z,24.47
2018-07-25T05:45:21.868Z,18.67
2018-07-25T05:46:27.245Z,16.07
2018-07-25T05:47:32.362Z,16.00
2018-07-25T05:48:37.797Z,22.23
2018-07-25T05:49:43.243Z,16.67
2018-07-25T05:50:48.698Z,16.53
2018-07-25T05:51:54.256Z,16.10
2018-07-25T05:52:59.909Z,20.47
2018-07-25T05:54:05.392Z,20.97
2018-07-25T05:55:10.800Z,15.10
2018-07-25T05:56:16.188Z,17.60
2018-07-25T05:57:21.668Z,16.50
2018-07-25T05:58:27.209Z,13.70
2018-07-25T05:59:32.656Z,17.97
2018-07-25T06:00:38.123Z,16.10
2018-07-25T06:01:43.681Z,20.47
2018-07-25T06:02:49.408Z,20.63
2018-07-25T06:03:54.870Z,18.67
2018-07-25T06:05:00.470Z,27.57
2018-07-25T06:06:06.407Z,23.40
2018-07-25T06:07:11.854Z,21.23
2018-07-25T06:08:17.372Z,15.97
2018-07-25T06:09:22.840Z,19.27
2018-07-25T06:10:28.383Z,14.63
2018-07-25T06:11:33.868Z,15.20
2018-07-25T06:12:39.296Z,16.93
2018-07-25T06:13:44.737Z,13.03
2018-07-25T06:14:50.200Z,15.70
2018-07-25T06:15:55.597Z,16.30
2018-07-25T06:17:01.426Z,15.10
2018-07-25T06:18:06.877Z,14.07
2018-07-25T06:19:12.313Z,14.53
2018-07-25T06:20:17.785Z,15.20
2018-07-25T06:21:23.328Z,14.00
2018-07-25T06:22:29.176Z,15.47
2018-07-25T06:23:34.620Z,14.13
2018-07-25T06:24:40.221Z,15.63
2018-07-25T06:25:45.687Z,15.70
2018-07-25T06:26:51.997Z,15.73
2018-07-25T06:27:57.673Z,14.87
2018-07-25T06:29:03.059Z,14.00
2018-07-25T06:30:08.524Z,13.30
2018-07-25T06:31:13.986Z,15.90
2018-07-25T06:32:19.343Z,17.00
2018-07-25T06:33:26.197Z,17.80
2018-07-25T06:34:31.608Z,16.90
2018-07-25T06:35:37.084Z,15.63
2018-07-25T06:36:42.525Z,16.20
2018-07-25T06:37:47.952Z,15.73
2018-07-25T06:38:53.503Z,23.23
2018-07-25T06:39:58.991Z,19.33
2018-07-25T06:41:04.414Z,17.40
2018-07-25T06:42:09.812Z,16.90
2018-07-25T06:43:15.307Z,14.57
2018-07-25T06:44:20.771Z,12.17
2018-07-25T06:45:26.279Z,11.83
2018-07-25T06:46:31.678Z,12.40
2018-07-25T06:47:37.317Z,20.03
2018-07-25T06:48:42.724Z,12.73
2018-07-25T06:49:48.148Z,15.83
2018-07-25T06:50:53.696Z,16.77
2018-07-25T06:51:59.123Z,16.03
2018-07-25T06:53:04.966Z,14.00
2018-07-25T06:54:10.385Z,14.23
2018-07-25T06:55:15.812Z,20.23
2018-07-25T06:56:21.273Z,14.87
2018-07-25T06:57:26.759Z,15.37
2018-07-25T06:58:32.440Z,14.80
2018-07-25T06:59:38.073Z,18.23
2018-07-25T07:00:43.493Z,13.80
2018-07-25T07:01:48.612Z,14.03
2018-07-25T07:02:53.967Z,15.00
2018-07-25T07:03:59.856Z,13.70
2018-07-25T07:05:05.737Z,19.00
2018-07-25T07:06:11.191Z,16.63
2018-07-25T07:07:16.593Z,13.70
2018-07-25T07:08:22.067Z,14.53
2018-07-25T07:09:27.476Z,11.00
2018-07-25T07:10:32.925Z,14.60
2018-07-25T07:11:38.441Z,14.00
2018-07-25T07:12:43.909Z,13.70
2018-07-25T07:13:49.743Z,20.57
2018-07-25T07:14:55.588Z,12.67
2018-07-25T07:16:01.081Z,16.90
2018-07-25T07:17:06.538Z,15.53
2018-07-25T07:18:11.932Z,14.43
2018-07-25T07:19:17.335Z,11.57
2018-07-25T07:20:23.028Z,11.83
2018-07-25T07:21:28.478Z,12.27
2018-07-25T07:22:33.934Z,10.73
2018-07-25T07:23:39.347Z,12.10
2018-07-25T07:24:44.786Z,11.77
2018-07-25T07:25:50.423Z,14.33
2018-07-25T07:26:55.841Z,12.83
2018-07-25T07:28:01.266Z,13.17
2018-07-25T07:29:07.841Z,10.33
2018-07-25T07:30:13.288Z,9.63
2018-07-25T07:31:18.761Z,9.70
2018-07-25T07:32:24.273Z,10.50
2018-07-25T07:33:29.762Z,10.70
2018-07-25T07:34:35.266Z,12.63
2018-07-25T07:35:40.701Z,11.07
2018-07-25T07:36:46.110Z,13.40
2018-07-25T07:37:51.559Z,17.00
2018-07-25T07:38:57.077Z,10.97
2018-07-25T07:40:02.521Z,11.43
2018-07-25T07:41:08.010Z,11.47
2018-07-25T07:42:13.466Z,11.07
2018-07-25T07:43:18.889Z,11.60
2018-07-25T07:44:24.436Z,18.90
2018-07-25T07:45:29.863Z,13.53
2018-07-25T07:46:35.629Z,23.73
2018-07-25T07:47:40.813Z,13.77
2018-07-25T07:48:46.142Z,10.20
2018-07-25T07:49:51.645Z,13.50
2018-07-25T07:50:57.113Z,9.40
2018-07-25T07:52:02.592Z,10.07
2018-07-25T07:53:08.112Z,9.37
2018-07-25T07:54:13.522Z,8.90
2018-07-25T07:55:19.358Z,10.50
2018-07-25T07:56:24.813Z,12.03
2018-07-25T07:57:30.248Z,9.57
2018-07-25T07:58:35.697Z,12.50
2018-07-25T07:59:41.130Z,13.00
2018-07-25T08:00:46.608Z,10.07
2018-07-25T08:01:52.328Z,9.77
2018-07-25T08:02:57.730Z,9.07
2018-07-25T08:04:03.196Z,15.67
2018-07-25T08:05:08.661Z,18.43
2018-07-25T08:06:14.128Z,13.47
2018-07-25T08:07:19.580Z,8.87
2018-07-25T08:08:25.234Z,9.23
2018-07-25T08:09:30.638Z,8.93
2018-07-25T08:10:36.117Z,10.50
2018-07-25T08:11:41.888Z,9.43
2018-07-25T08:12:47.356Z,13.83
2018-07-25T08:13:52.870Z,8.03
2018-07-25T08:14:58.285Z,9.33
2018-07-25T08:16:03.684Z,13.30
2018-07-25T08:17:09.494Z,17.70
2018-07-25T08:18:14.925Z,9.80
2018-07-25T08:19:20.447Z,11.20
2018-07-25T08:20:26.036Z,8.53
2018-07-25T08:21:31.515Z,15.13
2018-07-25T08:22:36.983Z,12.23
2018-07-25T08:23:43.543Z,14.23
2018-07-25T08:24:48.947Z,10.73
2018-07-25T08:25:54.438Z,7.40
2018-07-25T08:26:59.868Z,12.53
2018-07-25T08:28:05.378Z,8.80
2018-07-25T08:29:10.793Z,13.40
2018-07-25T08:30:16.209Z,8.20
2018-07-25T08:31:21.809Z,7.57
2018-07-25T08:32:27.421Z,8.90
2018-07-25T08:33:32.968Z,9.13
2018-07-25T08:34:38.451Z,6.63
2018-07-25T08:35:43.841Z,8.57
2018-07-25T08:36:49.457Z,6.57
2018-07-25T08:37:54.898Z,7.73
2018-07-25T08:39:00.312Z,8.47
2018-07-25T08:40:06.435Z,12.30
2018-07-25T08:41:11.972Z,7.50
2018-07-25T08:42:17.474Z,8.30
2018-07-25T08:43:22.912Z,8.73
2018-07-25T08:44:28.437Z,7.70
2018-07-25T08:45:33.543Z,5.90
2018-07-25T08:46:38.853Z,7.20
2018-07-25T08:47:44.257Z,10.50
2018-07-25T08:48:49.381Z,8.20
2018-07-25T08:49:54.933Z,8.13
2018-07-25T08:51:00.400Z,10.53
2018-07-25T08:52:05.965Z,9.13
2018-07-25T08:53:11.431Z,8.83
2018-07-25T08:54:16.873Z,8.40
2018-07-25T08:55:22.405Z,8.57
2018-07-25T08:56:27.853Z,7.40
2018-07-25T08:57:33.282Z,7.83
2018-07-25T08:58:38.757Z,6.53
2018-07-25T08:59:44.183Z,15.57
2018-07-25T09:00:50.081Z,7.90
2018-07-25T09:01:55.558Z,5.90
2018-07-25T09:03:00.975Z,5.90
2018-07-25T09:04:06.663Z,7.80
2018-07-25T09:05:12.155Z,5.40
2018-07-25T09:06:17.619Z,7.83
2018-07-25T09:07:23.124Z,4.60
2018-07-25T09:08:28.549Z,9.90
2018-07-25T09:09:34.020Z,9.20
2018-07-25T09:10:39.747Z,8.93
2018-07-25T09:11:45.247Z,6.10
2018-07-25T09:12:50.778Z,6.13
2018-07-25T09:13:56.899Z,5.40
2018-07-25T09:15:02.335Z,17.43
2018-07-25T09:16:07.797Z,6.63
2018-07-25T09:17:13.288Z,6.10
2018-07-25T09:18:18.817Z,7.43
2018-07-25T09:19:24.260Z,7.30
2018-07-25T09:20:29.700Z,8.97
2018-07-25T09:21:34.841Z,5.00
2018-07-25T09:22:40.219Z,10.93
2018-07-25T09:23:45.673Z,8.00
2018-07-25T09:24:51.153Z,6.20
2018-07-25T09:25:56.630Z,7.60
2018-07-25T09:27:02.101Z,5.67
2018-07-25T09:28:07.545Z,5.67
2018-07-25T09:29:13.012Z,5.80
2018-07-25T09:30:18.838Z,6.93
2018-07-25T09:31:24.728Z,7.47
2018-07-25T09:32:30.185Z,4.70
2018-07-25T09:33:35.622Z,5.17
2018-07-25T09:34:41.481Z,8.70
2018-07-25T09:35:46.917Z,5.00
2018-07-25T09:36:52.378Z,7.63
2018-07-25T09:37:57.890Z,9.03
2018-07-25T09:39:03.475Z,7.63
2018-07-25T09:40:08.929Z,7.80
2018-07-25T09:41:14.404Z,5.43
2018-07-25T09:42:19.834Z,9.70
2018-07-25T09:43:25.344Z,5.77
2018-07-25T09:44:30.754Z,13.80
2018-07-25T09:45:36.258Z,5.00
2018-07-25T09:46:41.785Z,7.10
2018-07-25T09:47:47.077Z,6.70
2018-07-25T09:48:52.720Z,5.33
2018-07-25T09:49:58.154Z,5.53
2018-07-25T09:51:03.722Z,5.00
2018-07-25T09:52:09.207Z,7.80
2018-07-25T09:53:14.714Z,7.27
2018-07-25T09:54:20.070Z,9.90
2018-07-25T09:55:25.617Z,7.80
2018-07-25T09:56:31.056Z,12.70
2018-07-25T09:57:36.884Z,7.80
2018-07-25T09:58:42.306Z,8.07
2018-07-25T09:59:47.745Z,9.10
2018-07-25T10:00:53.281Z,7.17
2018-07-25T10:01:58.729Z,12.20
2018-07-25T10:03:04.285Z,11.70
2018-07-25T10:04:09.714Z,7.27
2018-07-25T10:05:15.223Z,5.37
2018-07-25T10:06:20.702Z,6.30
2018-07-25T10:07:25.945Z,12.83
2018-07-25T10:08:31.236Z,8.33
2018-07-25T10:09:36.700Z,5.60
2018-07-25T10:10:42.405Z,11.97
2018-07-25T10:11:47.879Z,8.83
2018-07-25T10:12:53.528Z,8.10
2018-07-25T10:13:58.937Z,4.50
2018-07-25T10:15:04.520Z,5.90
2018-07-25T10:16:10.017Z,6.03
2018-07-25T10:17:15.489Z,12.70
2018-07-25T10:18:21.013Z,9.23
2018-07-25T10:19:26.602Z,5.60
2018-07-25T10:20:32.120Z,5.70
2018-07-25T10:21:37.634Z,5.83
2018-07-25T10:22:43.093Z,6.37
2018-07-25T10:23:48.879Z,16.60
2018-07-25T10:24:54.359Z,8.23
2018-07-25T10:25:59.888Z,11.50
2018-07-25T10:27:05.347Z,5.23
2018-07-25T10:28:10.772Z,6.27
2018-07-25T10:29:16.233Z,5.10
2018-07-25T10:30:22.249Z,6.37
2018-07-25T10:31:27.730Z,8.93
2018-07-25T10:32:33.225Z,10.97
2018-07-25T10:33:38.618Z,6.13
2018-07-25T10:34:44.169Z,6.77
2018-07-25T10:35:49.592Z,7.83
2018-07-25T10:36:55.036Z,9.10
2018-07-25T10:38:00.474Z,6.70
2018-07-25T10:39:09.296Z,4.43
2018-07-25T10:40:14.645Z,8.60
2018-07-25T10:41:20.112Z,6.13
2018-07-25T10:42:25.532Z,15.83
2018-07-25T10:43:30.973Z,5.07
2018-07-25T10:44:36.484Z,4.13
2018-07-25T10:45:42.050Z,7.23
2018-07-25T10:46:47.462Z,10.70
2018-07-25T10:47:52.975Z,5.10
2018-07-25T10:48:58.825Z,6.23
2018-07-25T10:50:05.057Z,3.93
2018-07-25T10:51:10.512Z,5.63
2018-07-25T10:52:15.928Z,11.90
2018-07-25T10:53:21.472Z,5.80
2018-07-25T10:54:26.659Z,9.63
2018-07-25T10:55:32.042Z,5.70
2018-07-25T10:56:37.448Z,9.50
2018-07-25T10:57:42.897Z,5.47
2018-07-25T10:58:48.284Z,5.13
2018-07-25T10:59:53.890Z,11.10
2018-07-25T11:00:59.356Z,5.53
2018-07-25T11:02:04.934Z,4.43
2018-07-25T11:03:10.293Z,7.40
2018-07-25T11:04:15.744Z,6.83
2018-07-25T11:05:21.248Z,5.77
2018-07-25T11:06:26.789Z,6.10
2018-07-25T11:07:32.246Z,10.83
2018-07-25T11:08:37.648Z,5.87
2018-07-25T11:09:43.155Z,8.30
2018-07-25T11:10:48.813Z,6.90
2018-07-25T11:11:54.246Z,8.13
2018-07-25T11:12:59.719Z,4.53
2018-07-25T11:14:05.262Z,8.47
2018-07-25T11:15:10.725Z,6.40
2018-07-25T11:16:16.410Z,7.53
2018-07-25T11:17:22.442Z,7.43
2018-07-25T11:18:27.927Z,4.97
2018-07-25T11:19:33.378Z,5.03
2018-07-25T11:20:38.798Z,5.67
2018-07-25T11:21:44.279Z,5.10
2018-07-25T11:22:49.781Z,4.70
2018-07-25T11:23:55.206Z,8.20
2018-07-25T11:25:00.666Z,5.17
2018-07-25T11:26:06.115Z,7.83
2018-07-25T11:27:11.682Z,5.00
2018-07-25T11:28:17.112Z,7.63
2018-07-25T11:29:22.867Z,6.87
2018-07-25T11:30:28.415Z,6.40
2018-07-25T11:31:33.805Z,7.70
2018-07-25T11:32:39.257Z,4.80
2018-07-25T11:33:45.049Z,13.53
2018-07-25T11:34:50.565Z,9.90
2018-07-25T11:35:56.115Z,17.23
2018-07-25T11:37:01.590Z,4.97
2018-07-25T11:38:07.031Z,5.80
2018-07-25T11:39:13.994Z,6.00
2018-07-25T11:40:19.482Z,6.13
2018-07-25T11:41:24.988Z,7.53
2018-07-25T11:42:30.380Z,5.27
2018-07-25T11:43:35.867Z,6.33
2018-07-25T11:44:41.225Z,4.73
2018-07-25T11:45:46.705Z,11.53
2018-07-25T11:46:52.196Z,5.40
2018-07-25T11:47:57.628Z,5.27
2018-07-25T11:49:03.088Z,6.47
2018-07-25T11:50:08.732Z,5.10
2018-07-25T11:51:14.120Z,11.33
2018-07-25T11:52:20.025Z,8.17
2018-07-25T11:53:25.505Z,4.77
2018-07-25T11:54:30.945Z,5.20
2018-07-25T11:55:37.065Z,7.00
2018-07-25T11:56:42.448Z,5.60
2018-07-25T11:57:47.902Z,4.43
2018-07-25T11:58:53.416Z,5.27
2018-07-25T11:59:59.009Z,5.00
2018-07-25T12:01:04.876Z,5.93
2018-07-25T12:02:10.253Z,6.37
2018-07-25T12:03:15.693Z,5.10
2018-07-25T12:04:21.140Z,6.90
2018-07-25T12:05:26.603Z,6.83
2018-07-25T12:06:32.120Z,5.87
2018-07-25T12:07:37.143Z,4.80
2018-07-25T12:08:42.536Z,5.13
2018-07-25T12:09:47.994Z,6.67
2018-07-25T12:10:53.459Z,8.60
2018-07-25T12:11:59.000Z,5.83
2018-07-25T12:13:04.642Z,5.10
2018-07-25T12:14:10.054Z,5.40
2018-07-25T12:15:15.489Z,6.10
2018-07-25T12:16:20.976Z,6.40
2018-07-25T12:17:26.865Z,5.80
2018-07-25T12:18:32.294Z,7.57
2018-07-25T12:19:37.725Z,5.43
2018-07-25T12:20:43.208Z,7.20
2018-07-25T12:21:48.698Z,5.40
2018-07-25T12:22:54.271Z,5.60
2018-07-25T12:23:59.704Z,7.80
2018-07-25T12:25:05.902Z,5.03
2018-07-25T12:26:11.401Z,5.27
2018-07-25T12:27:16.844Z,5.23
2018-07-25T12:28:22.342Z,10.03
2018-07-25T12:29:27.805Z,5.93
2018-07-25T12:30:33.286Z,8.53
2018-07-25T12:31:38.731Z,5.33
2018-07-25T12:32:44.185Z,35.83
2018-07-25T12:33:49.661Z,6.90
2018-07-25T12:34:55.320Z,8.00
2018-07-25T12:36:00.854Z,5.57
2018-07-25T12:37:06.319Z,5.90
2018-07-25T12:38:11.791Z,10.30
2018-07-25T12:39:17.237Z,10.13
2018-07-25T12:40:23.124Z,9.17
2018-07-25T12:41:28.634Z,5.73
2018-07-25T12:42:34.094Z,6.00
2018-07-25T12:43:39.591Z,8.90
2018-07-25T12:44:45.002Z,6.80
2018-07-25T12:45:51.340Z,6.17
2018-07-25T12:46:56.916Z,5.30
2018-07-25T12:48:02.325Z,8.73
2018-07-25T12:49:07.785Z,6.30
2018-07-25T12:50:13.192Z,5.00
2018-07-25T12:51:18.692Z,4.60
2018-07-25T12:52:24.165Z,6.83
2018-07-25T12:53:29.642Z,6.43
2018-07-25T12:54:35.096Z,5.17
2018-07-25T12:55:40.561Z,5.27
2018-07-25T12:56:46.093Z,15.37
2018-07-25T12:57:51.602Z,10.30
2018-07-25T12:58:57.072Z,5.53
2018-07-25T13:00:02.540Z,5.00
2018-07-25T13:01:08.001Z,6.53
2018-07-25T13:02:13.589Z,4.73
2018-07-25T13:03:19.028Z,6.17
2018-07-25T13:04:24.555Z,5.90
2018-07-25T13:05:30.048Z,11.00
2018-07-25T13:06:35.499Z,5.60
2018-07-25T13:07:40.989Z,6.93
2018-07-25T13:08:46.446Z,7.27
2018-07-25T13:09:51.930Z,5.70
2018-07-25T13:10:57.429Z,4.90
2018-07-25T13:12:02.914Z,6.10
2018-07-25T13:13:08.398Z,8.80
2018-07-25T13:14:13.861Z,6.70
2018-07-25T13:15:19.653Z,5.23
2018-07-25T13:16:25.104Z,5.73
2018-07-25T13:17:30.604Z,5.23
2018-07-25T13:18:36.073Z,10.80
2018-07-25T13:19:41.472Z,8.33
2018-07-25T13:20:46.952Z,4.83
2018-07-25T13:21:52.449Z,7.80
2018-07-25T13:22:57.960Z,9.83
2018-07-25T13:24:03.450Z,9.47
2018-07-25T13:25:08.912Z,5.30
2018-07-25T13:26:14.353Z,9.83
2018-07-25T13:27:19.821Z,5.77
2018-07-25T13:28:25.482Z,8.30
2018-07-25T13:29:30.894Z,5.70
2018-07-25T13:30:36.421Z,10.77
2018-07-25T13:31:41.886Z,8.13
2018-07-25T13:32:47.293Z,7.43
2018-07-25T13:33:52.970Z,7.23
2018-07-25T13:34:58.077Z,6.80
2018-07-25T13:36:03.566Z,6.77
2018-07-25T13:37:09.457Z,6.00
2018-07-25T13:38:14.874Z,5.37
2018-07-25T13:39:20.396Z,5.50
2018-07-25T13:40:25.878Z,5.77
2018-07-25T13:41:31.661Z,6.00
2018-07-25T13:42:37.102Z,10.87
2018-07-25T13:43:42.554Z,5.10
2018-07-25T13:44:47.988Z,8.73
2018-07-25T13:45:53.622Z,8.23
2018-07-25T13:46:59.182Z,5.83
2018-07-25T13:48:04.920Z,10.83
2018-07-25T13:49:10.418Z,6.27
2018-07-25T13:50:15.845Z,5.07
2018-07-25T13:51:21.370Z,6.40
2018-07-25T13:52:26.892Z,9.73
2018-07-25T13:53:32.353Z,8.20
2018-07-25T13:54:37.849Z,5.90
2018-07-25T13:55:43.975Z,5.20
2018-07-25T13:56:49.430Z,7.20
2018-07-25T13:57:55.036Z,6.60
2018-07-25T13:59:00.520Z,5.10
2018-07-25T14:00:08.310Z,5.57
2018-07-25T14:01:13.750Z,8.03
2018-07-25T14:02:19.405Z,5.60
2018-07-25T14:03:24.862Z,8.43
2018-07-25T14:04:30.540Z,7.20
2018-07-25T14:05:35.991Z,7.83
2018-07-25T14:06:41.456Z,6.00
2018-07-25T14:07:46.906Z,6.03
2018-07-25T14:08:52.449Z,5.27
2018-07-25T14:09:58.169Z,5.93
2018-07-25T14:11:03.630Z,6.63
2018-07-25T14:12:09.160Z,4.67
2018-07-25T14:13:14.597Z,5.23
2018-07-25T14:14:20.326Z,6.60